sensor_id;sensor_type;location;lat;lon;timestamp;P1;durP1;ratioP1;P2;durP2;ratioP2
68593;SDS011;55563;52.416;13.548;2023-05-19T00:00:31;0.82;;;0.50;;
68593;SDS011;55563;52.416;13.548;2023-05-19T00:02:32;0.30;;;0.30;;
68593;SDS011;55563;52.416;13.548;2023-05-19T00:04:33;0.30;;;0.30;;
68593;SDS011;55563;52.416;13.548;2023-05-19T00:06:34;0.63;;;0.63;;
68593;SDS011;55563;52.416;13.548;2023-05-19T00:08:36;0.30;;;0.30;;
68593;SDS011;55563;52.416;13.548;2023-05-19T00:10:37;0.30;;;0.30;;
68593;SDS011;55563;52.416;13.548;2023-05-19T00:12:38;0.20;;;0.20;;
68593;SDS011;55563;52.416;13.548;2023-05-19T00:14:39;0.30;;;0.30;;
68593;SDS011;55563;52.416;13.548;2023-05-19T00:16:40;0.20;;;0.20;;
68593;SDS011;55563;52.416;13.548;2023-05-19T00:18:42;0.55;;;0.55;;
68593;SDS011;55563;52.416;13.548;2023-05-19T00:20:42;0.32;;;0.32;;
68593;SDS011;55563;52.416;13.548;2023-05-19T00:22:43;0.40;;;0.40;;
68593;SDS011;55563;52.416;13.548;2023-05-19T00:24:44;0.40;;;0.40;;
68593;SDS011;55563;52.416;13.548;2023-05-19T00:26:44;0.30;;;0.30;;
68593;SDS011;55563;52.416;13.548;2023-05-19T00:28:45;0.30;;;0.30;;
68593;SDS011;55563;52.416;13.548;2023-05-19T00:30:46;0.30;;;0.30;;
68593;SDS011;55563;52.416;13.548;2023-05-19T00:32:46;0.50;;;0.50;;
68593;SDS011;55563;52.416;13.548;2023-05-19T00:34:47;0.30;;;0.30;;
68593;SDS011;55563;52.416;13.548;2023-05-19T00:38:49;0.50;;;0.50;;
68593;SDS011;55563;52.416;13.548;2023-05-19T00:40:51;0.32;;;0.32;;
68593;SDS011;55563;52.416;13.548;2023-05-19T00:42:52;0.38;;;0.38;;
68593;SDS011;55563;52.416;13.548;2023-05-19T00:44:52;6.72;;;0.95;;
68593;SDS011;55563;52.416;13.548;2023-05-19T00:46:53;0.45;;;0.45;;
68593;SDS011;55563;52.416;13.548;2023-05-19T00:48:54;0.20;;;0.20;;
68593;SDS011;55563;52.416;13.548;2023-05-19T00:50:55;0.80;;;0.80;;
68593;SDS011;55563;52.416;13.548;2023-05-19T00:53:01;0.35;;;0.35;;
68593;SDS011;55563;52.416;13.548;2023-05-19T00:55:02;0.22;;;0.22;;
68593;SDS011;55563;52.416;13.548;2023-05-19T00:57:03;0.22;;;0.22;;
68593;SDS011;55563;52.416;13.548;2023-05-19T00:59:03;0.35;;;0.35;;
68593;SDS011;55563;52.416;13.548;2023-05-19T01:01:04;0.40;;;0.40;;
68593;SDS011;55563;52.416;13.548;2023-05-19T01:03:07;0.38;;;0.38;;
68593;SDS011;55563;52.416;13.548;2023-05-19T01:05:10;0.30;;;0.30;;
68593;SDS011;55563;52.416;13.548;2023-05-19T01:07:12;0.20;;;0.20;;
68593;SDS011;55563;52.416;13.548;2023-05-19T01:09:12;0.40;;;0.40;;
68593;SDS011;55563;52.416;13.548;2023-05-19T01:11:14;0.40;;;0.40;;
68593;SDS011;55563;52.416;13.548;2023-05-19T01:13:14;0.98;;;0.98;;
68593;SDS011;55563;52.416;13.548;2023-05-19T01:15:15;0.43;;;0.43;;
68593;SDS011;55563;52.416;13.548;2023-05-19T01:17:26;0.30;;;0.30;;
68593;SDS011;55563;52.416;13.548;2023-05-19T01:19:55;0.80;;;0.80;;
68593;SDS011;55563;52.416;13.548;2023-05-19T01:22:05;1.02;;;1.02;;
68593;SDS011;55563;52.416;13.548;2023-05-19T01:24:33;0.85;;;0.85;;
68593;SDS011;55563;52.416;13.548;2023-05-19T01:29:29;4.28;;;1.63;;
68593;SDS011;55563;52.416;13.548;2023-05-19T01:31:51;0.30;;;0.30;;
68593;SDS011;55563;52.416;13.548;2023-05-19T01:33:54;0.30;;;0.30;;
68593;SDS011;55563;52.416;13.548;2023-05-19T01:35:56;0.50;;;0.50;;
68593;SDS011;55563;52.416;13.548;2023-05-19T01:37:59;0.47;;;0.47;;
68593;SDS011;55563;52.416;13.548;2023-05-19T01:40:00;0.20;;;0.20;;
68593;SDS011;55563;52.416;13.548;2023-05-19T01:42:01;0.50;;;0.50;;
68593;SDS011;55563;52.416;13.548;2023-05-19T01:44:03;0.45;;;0.45;;
68593;SDS011;55563;52.416;13.548;2023-05-19T01:46:04;0.17;;;0.17;;
68593;SDS011;55563;52.416;13.548;2023-05-19T01:50:07;0.20;;;0.20;;
68593;SDS011;55563;52.416;13.548;2023-05-19T01:52:07;0.35;;;0.35;;
68593;SDS011;55563;52.416;13.548;2023-05-19T01:54:08;0.32;;;0.32;;
68593;SDS011;55563;52.416;13.548;2023-05-19T01:56:09;0.50;;;0.45;;
68593;SDS011;55563;52.416;13.548;2023-05-19T01:58:45;0.45;;;0.45;;
68593;SDS011;55563;52.416;13.548;2023-05-19T02:00:50;0.47;;;0.47;;
68593;SDS011;55563;52.416;13.548;2023-05-19T02:03:47;0.20;;;0.20;;
68593;SDS011;55563;52.416;13.548;2023-05-19T02:05:56;0.70;;;0.70;;
68593;SDS011;55563;52.416;13.548;2023-05-19T02:10:39;0.43;;;0.43;;
68593;SDS011;55563;52.416;13.548;2023-05-19T02:12:47;0.30;;;0.30;;
68593;SDS011;55563;52.416;13.548;2023-05-19T02:15:03;0.22;;;0.22;;
68593;SDS011;55563;52.416;13.548;2023-05-19T02:17:16;0.40;;;0.40;;
68593;SDS011;55563;52.416;13.548;2023-05-19T02:19:22;0.32;;;0.32;;
68593;SDS011;55563;52.416;13.548;2023-05-19T02:21:26;1.38;;;0.50;;
68593;SDS011;55563;52.416;13.548;2023-05-19T02:23:29;0.30;;;0.30;;
68593;SDS011;55563;52.416;13.548;2023-05-19T02:25:31;0.40;;;0.40;;
68593;SDS011;55563;52.416;13.548;2023-05-19T02:27:33;0.30;;;0.30;;
68593;SDS011;55563;52.416;13.548;2023-05-19T02:29:38;0.30;;;0.30;;
68593;SDS011;55563;52.416;13.548;2023-05-19T02:31:40;0.43;;;0.43;;
68593;SDS011;55563;52.416;13.548;2023-05-19T02:33:41;0.30;;;0.30;;
68593;SDS011;55563;52.416;13.548;2023-05-19T02:35:43;0.30;;;0.30;;
68593;SDS011;55563;52.416;13.548;2023-05-19T02:37:45;0.38;;;0.38;;
68593;SDS011;55563;52.416;13.548;2023-05-19T02:39:47;0.50;;;0.50;;
68593;SDS011;55563;52.416;13.548;2023-05-19T02:41:51;0.40;;;0.40;;
68593;SDS011;55563;52.416;13.548;2023-05-19T02:43:52;0.20;;;0.20;;
68593;SDS011;55563;52.416;13.548;2023-05-19T02:45:53;0.45;;;0.45;;
68593;SDS011;55563;52.416;13.548;2023-05-19T02:47:54;0.28;;;0.28;;
68593;SDS011;55563;52.416;13.548;2023-05-19T02:49:57;0.30;;;0.30;;
68593;SDS011;55563;52.416;13.548;2023-05-19T02:51:58;0.30;;;0.30;;
68593;SDS011;55563;52.416;13.548;2023-05-19T02:54:00;0.38;;;0.38;;
68593;SDS011;55563;52.416;13.548;2023-05-19T02:56:03;0.30;;;0.30;;
68593;SDS011;55563;52.416;13.548;2023-05-19T02:58:04;0.35;;;0.35;;
68593;SDS011;55563;52.416;13.548;2023-05-19T03:00:07;0.40;;;0.40;;
68593;SDS011;55563;52.416;13.548;2023-05-19T03:02:09;1.05;;;0.63;;
68593;SDS011;55563;52.416;13.548;2023-05-19T03:04:11;0.30;;;0.30;;
68593;SDS011;55563;52.416;13.548;2023-05-19T03:06:14;0.55;;;0.55;;
68593;SDS011;55563;52.416;13.548;2023-05-19T03:08:17;0.32;;;0.32;;
68593;SDS011;55563;52.416;13.548;2023-05-19T03:10:21;2.60;;;0.70;;
68593;SDS011;55563;52.416;13.548;2023-05-19T03:12:22;0.32;;;0.32;;
68593;SDS011;55563;52.416;13.548;2023-05-19T03:14:23;0.30;;;0.30;;
68593;SDS011;55563;52.416;13.548;2023-05-19T03:16:24;0.38;;;0.38;;
68593;SDS011;55563;52.416;13.548;2023-05-19T03:18:29;0.40;;;0.40;;
68593;SDS011;55563;52.416;13.548;2023-05-19T03:20:30;0.30;;;0.30;;
68593;SDS011;55563;52.416;13.548;2023-05-19T03:22:31;0.63;;;0.63;;
68593;SDS011;55563;52.416;13.548;2023-05-19T03:24:32;0.43;;;0.43;;
68593;SDS011;55563;52.416;13.548;2023-05-19T03:26:34;0.38;;;0.38;;
68593;SDS011;55563;52.416;13.548;2023-05-19T03:28:38;0.30;;;0.30;;
68593;SDS011;55563;52.416;13.548;2023-05-19T03:30:41;0.47;;;0.47;;
68593;SDS011;55563;52.416;13.548;2023-05-19T03:32:50;0.45;;;0.45;;
68593;SDS011;55563;52.416;13.548;2023-05-19T03:34:51;0.40;;;0.40;;
68593;SDS011;55563;52.416;13.548;2023-05-19T03:36:54;0.30;;;0.30;;
68593;SDS011;55563;52.416;13.548;2023-05-19T03:38:57;0.30;;;0.30;;
68593;SDS011;55563;52.416;13.548;2023-05-19T03:40:59;0.40;;;0.40;;
68593;SDS011;55563;52.416;13.548;2023-05-19T03:43:00;0.35;;;0.35;;
68593;SDS011;55563;52.416;13.548;2023-05-19T03:45:05;0.40;;;0.40;;
68593;SDS011;55563;52.416;13.548;2023-05-19T03:47:06;0.40;;;0.40;;
68593;SDS011;55563;52.416;13.548;2023-05-19T03:49:28;0.40;;;0.40;;
68593;SDS011;55563;52.416;13.548;2023-05-19T03:51:49;0.63;;;0.63;;
68593;SDS011;55563;52.416;13.548;2023-05-19T03:53:58;0.50;;;0.50;;
68593;SDS011;55563;52.416;13.548;2023-05-19T03:55:59;0.43;;;0.43;;
68593;SDS011;55563;52.416;13.548;2023-05-19T03:58:00;0.40;;;0.40;;
68593;SDS011;55563;52.416;13.548;2023-05-19T04:00:03;0.55;;;0.55;;
68593;SDS011;55563;52.416;13.548;2023-05-19T04:02:23;0.20;;;0.20;;
68593;SDS011;55563;52.416;13.548;2023-05-19T04:04:25;0.85;;;0.85;;
68593;SDS011;55563;52.416;13.548;2023-05-19T04:06:28;1.17;;;1.17;;
68593;SDS011;55563;52.416;13.548;2023-05-19T04:08:29;0.95;;;0.95;;
68593;SDS011;55563;52.416;13.548;2023-05-19T04:10:33;0.77;;;0.77;;
68593;SDS011;55563;52.416;13.548;2023-05-19T04:12:36;1.02;;;1.02;;
68593;SDS011;55563;52.416;13.548;2023-05-19T04:14:38;0.82;;;0.82;;
68593;SDS011;55563;52.416;13.548;2023-05-19T04:16:39;0.98;;;0.98;;
68593;SDS011;55563;52.416;13.548;2023-05-19T04:18:40;1.10;;;1.10;;
68593;SDS011;55563;52.416;13.548;2023-05-19T04:20:44;0.70;;;0.70;;
68593;SDS011;55563;52.416;13.548;2023-05-19T04:22:46;0.80;;;0.80;;
68593;SDS011;55563;52.416;13.548;2023-05-19T04:24:47;1.02;;;1.02;;
68593;SDS011;55563;52.416;13.548;2023-05-19T04:26:51;0.60;;;0.60;;
68593;SDS011;55563;52.416;13.548;2023-05-19T04:28:53;0.98;;;0.98;;
68593;SDS011;55563;52.416;13.548;2023-05-19T04:30:56;1.25;;;1.25;;
68593;SDS011;55563;52.416;13.548;2023-05-19T04:32:58;1.00;;;1.00;;
68593;SDS011;55563;52.416;13.548;2023-05-19T04:35:01;0.95;;;0.95;;
68593;SDS011;55563;52.416;13.548;2023-05-19T04:37:03;1.35;;;1.25;;
68593;SDS011;55563;52.416;13.548;2023-05-19T04:39:07;0.80;;;0.80;;
68593;SDS011;55563;52.416;13.548;2023-05-19T04:41:14;0.88;;;0.88;;
68593;SDS011;55563;52.416;13.548;2023-05-19T04:43:17;0.88;;;0.88;;
68593;SDS011;55563;52.416;13.548;2023-05-19T04:45:19;1.02;;;1.02;;
68593;SDS011;55563;52.416;13.548;2023-05-19T04:47:24;1.00;;;1.00;;
68593;SDS011;55563;52.416;13.548;2023-05-19T04:49:28;0.70;;;0.70;;
68593;SDS011;55563;52.416;13.548;2023-05-19T04:51:29;1.75;;;1.20;;
68593;SDS011;55563;52.416;13.548;2023-05-19T04:53:32;0.93;;;0.93;;
68593;SDS011;55563;52.416;13.548;2023-05-19T04:55:35;0.95;;;0.95;;
68593;SDS011;55563;52.416;13.548;2023-05-19T04:57:40;1.05;;;1.05;;
68593;SDS011;55563;52.416;13.548;2023-05-19T04:59:42;0.82;;;0.82;;
68593;SDS011;55563;52.416;13.548;2023-05-19T05:01:44;0.80;;;0.80;;
68593;SDS011;55563;52.416;13.548;2023-05-19T05:03:48;0.80;;;0.80;;
68593;SDS011;55563;52.416;13.548;2023-05-19T05:05:51;0.75;;;0.75;;
68593;SDS011;55563;52.416;13.548;2023-05-19T05:07:52;0.88;;;0.88;;
68593;SDS011;55563;52.416;13.548;2023-05-19T05:09:55;0.80;;;0.80;;
68593;SDS011;55563;52.416;13.548;2023-05-19T05:11:57;1.00;;;1.00;;
68593;SDS011;55563;52.416;13.548;2023-05-19T05:13:59;0.90;;;0.90;;
68593;SDS011;55563;52.416;13.548;2023-05-19T05:16:04;0.73;;;0.73;;
68593;SDS011;55563;52.416;13.548;2023-05-19T05:18:07;0.80;;;0.80;;
68593;SDS011;55563;52.416;13.548;2023-05-19T05:20:10;0.75;;;0.75;;
68593;SDS011;55563;52.416;13.548;2023-05-19T05:22:13;0.80;;;0.80;;
68593;SDS011;55563;52.416;13.548;2023-05-19T05:24:16;0.75;;;0.75;;
68593;SDS011;55563;52.416;13.548;2023-05-19T05:26:22;0.77;;;0.77;;
68593;SDS011;55563;52.416;13.548;2023-05-19T05:28:30;1.00;;;1.00;;
68593;SDS011;55563;52.416;13.548;2023-05-19T05:30:33;1.25;;;1.25;;
68593;SDS011;55563;52.416;13.548;2023-05-19T05:32:34;0.82;;;0.82;;
68593;SDS011;55563;52.416;13.548;2023-05-19T05:34:39;0.75;;;0.75;;
68593;SDS011;55563;52.416;13.548;2023-05-19T05:36:42;1.23;;;0.98;;
68593;SDS011;55563;52.416;13.548;2023-05-19T05:38:43;0.80;;;0.80;;
68593;SDS011;55563;52.416;13.548;2023-05-19T05:40:45;0.82;;;0.82;;
68593;SDS011;55563;52.416;13.548;2023-05-19T05:42:47;0.88;;;0.88;;
68593;SDS011;55563;52.416;13.548;2023-05-19T05:44:49;0.90;;;0.90;;
68593;SDS011;55563;52.416;13.548;2023-05-19T05:46:52;0.85;;;0.85;;
68593;SDS011;55563;52.416;13.548;2023-05-19T05:48:56;0.70;;;0.70;;
68593;SDS011;55563;52.416;13.548;2023-05-19T05:50:58;0.80;;;0.80;;
68593;SDS011;55563;52.416;13.548;2023-05-19T05:53:04;1.08;;;1.08;;
68593;SDS011;55563;52.416;13.548;2023-05-19T05:55:08;1.00;;;1.00;;
68593;SDS011;55563;52.416;13.548;2023-05-19T05:57:13;0.90;;;0.90;;
68593;SDS011;55563;52.416;13.548;2023-05-19T05:59:16;0.82;;;0.82;;
68593;SDS011;55563;52.416;13.548;2023-05-19T06:01:17;0.75;;;0.75;;
68593;SDS011;55563;52.416;13.548;2023-05-19T06:05:25;1.08;;;1.08;;
68593;SDS011;55563;52.416;13.548;2023-05-19T06:07:28;1.05;;;0.95;;
68593;SDS011;55563;52.416;13.548;2023-05-19T06:09:31;0.77;;;0.77;;
68593;SDS011;55563;52.416;13.548;2023-05-19T06:11:32;0.77;;;0.77;;
68593;SDS011;55563;52.416;13.548;2023-05-19T06:15:39;1.05;;;1.05;;
68593;SDS011;55563;52.416;13.548;2023-05-19T06:17:50;0.95;;;0.95;;
68593;SDS011;55563;52.416;13.548;2023-05-19T06:19:52;0.82;;;0.82;;
68593;SDS011;55563;52.416;13.548;2023-05-19T06:21:54;1.15;;;1.15;;
68593;SDS011;55563;52.416;13.548;2023-05-19T06:23:56;1.10;;;1.10;;
68593;SDS011;55563;52.416;13.548;2023-05-19T06:26:01;1.23;;;1.13;;
68593;SDS011;55563;52.416;13.548;2023-05-19T06:28:04;0.95;;;0.95;;
68593;SDS011;55563;52.416;13.548;2023-05-19T06:30:06;0.80;;;0.80;;
68593;SDS011;55563;52.416;13.548;2023-05-19T06:32:19;2.65;;;1.25;;
68593;SDS011;55563;52.416;13.548;2023-05-19T06:34:20;0.85;;;0.85;;
68593;SDS011;55563;52.416;13.548;2023-05-19T06:36:21;0.90;;;0.90;;
68593;SDS011;55563;52.416;13.548;2023-05-19T06:38:22;4.28;;;1.67;;
68593;SDS011;55563;52.416;13.548;2023-05-19T06:40:24;1.98;;;1.17;;
68593;SDS011;55563;52.416;13.548;2023-05-19T06:42:26;0.95;;;0.95;;
68593;SDS011;55563;52.416;13.548;2023-05-19T06:44:48;0.80;;;0.80;;
68593;SDS011;55563;52.416;13.548;2023-05-19T06:46:52;0.85;;;0.85;;
68593;SDS011;55563;52.416;13.548;2023-05-19T06:48:54;1.10;;;1.00;;
68593;SDS011;55563;52.416;13.548;2023-05-19T06:50:57;0.90;;;0.90;;
68593;SDS011;55563;52.416;13.548;2023-05-19T06:53:01;1.35;;;1.25;;
68593;SDS011;55563;52.416;13.548;2023-05-19T06:55:04;1.08;;;1.08;;
68593;SDS011;55563;52.416;13.548;2023-05-19T06:57:07;0.85;;;0.85;;
68593;SDS011;55563;52.416;13.548;2023-05-19T06:59:09;1.20;;;1.20;;
68593;SDS011;55563;52.416;13.548;2023-05-19T07:01:11;0.98;;;0.98;;
68593;SDS011;55563;52.416;13.548;2023-05-19T07:03:18;0.85;;;0.85;;
68593;SDS011;55563;52.416;13.548;2023-05-19T07:05:18;1.10;;;1.10;;
68593;SDS011;55563;52.416;13.548;2023-05-19T07:07:25;1.30;;;1.30;;
68593;SDS011;55563;52.416;13.548;2023-05-19T07:09:30;0.90;;;0.90;;
68593;SDS011;55563;52.416;13.548;2023-05-19T07:11:34;0.98;;;0.98;;
68593;SDS011;55563;52.416;13.548;2023-05-19T07:13:35;1.10;;;1.10;;
68593;SDS011;55563;52.416;13.548;2023-05-19T07:15:38;0.90;;;0.90;;
68593;SDS011;55563;52.416;13.548;2023-05-19T07:17:39;1.08;;;1.08;;
68593;SDS011;55563;52.416;13.548;2023-05-19T07:19:41;0.98;;;0.98;;
68593;SDS011;55563;52.416;13.548;2023-05-19T07:21:42;0.93;;;0.93;;
68593;SDS011;55563;52.416;13.548;2023-05-19T07:24:08;1.00;;;1.00;;
68593;SDS011;55563;52.416;13.548;2023-05-19T07:28:11;0.88;;;0.88;;
68593;SDS011;55563;52.416;13.548;2023-05-19T07:30:12;1.10;;;1.10;;
68593;SDS011;55563;52.416;13.548;2023-05-19T07:32:14;0.88;;;0.88;;
68593;SDS011;55563;52.416;13.548;2023-05-19T07:34:15;1.00;;;1.00;;
68593;SDS011;55563;52.416;13.548;2023-05-19T07:36:17;0.85;;;0.85;;
68593;SDS011;55563;52.416;13.548;2023-05-19T07:38:19;1.02;;;1.02;;
68593;SDS011;55563;52.416;13.548;2023-05-19T07:40:21;0.90;;;0.90;;
68593;SDS011;55563;52.416;13.548;2023-05-19T07:42:23;0.90;;;0.90;;
68593;SDS011;55563;52.416;13.548;2023-05-19T07:44:23;1.20;;;1.00;;
68593;SDS011;55563;52.416;13.548;2023-05-19T07:46:26;1.10;;;1.10;;
68593;SDS011;55563;52.416;13.548;2023-05-19T07:48:28;2.95;;;2.70;;
68593;SDS011;55563;52.416;13.548;2023-05-19T07:50:30;1.50;;;1.45;;
68593;SDS011;55563;52.416;13.548;2023-05-19T07:52:32;0.95;;;0.95;;
68593;SDS011;55563;52.416;13.548;2023-05-19T07:54:35;0.98;;;0.98;;
68593;SDS011;55563;52.416;13.548;2023-05-19T07:56:38;0.82;;;0.82;;
68593;SDS011;55563;52.416;13.548;2023-05-19T07:58:39;1.27;;;1.27;;
68593;SDS011;55563;52.416;13.548;2023-05-19T08:00:40;0.88;;;0.88;;
68593;SDS011;55563;52.416;13.548;2023-05-19T08:02:43;2.13;;;1.70;;
68593;SDS011;55563;52.416;13.548;2023-05-19T08:06:46;0.90;;;0.90;;
68593;SDS011;55563;52.416;13.548;2023-05-19T08:08:48;0.90;;;0.90;;
68593;SDS011;55563;52.416;13.548;2023-05-19T08:10:50;0.90;;;0.90;;
68593;SDS011;55563;52.416;13.548;2023-05-19T08:12:52;1.30;;;1.30;;
68593;SDS011;55563;52.416;13.548;2023-05-19T08:14:53;1.73;;;1.63;;
68593;SDS011;55563;52.416;13.548;2023-05-19T08:16:55;1.00;;;1.00;;
68593;SDS011;55563;52.416;13.548;2023-05-19T08:18:58;1.05;;;1.05;;
68593;SDS011;55563;52.416;13.548;2023-05-19T08:21:02;0.95;;;0.95;;
68593;SDS011;55563;52.416;13.548;2023-05-19T08:23:04;1.35;;;1.25;;
68593;SDS011;55563;52.416;13.548;2023-05-19T08:25:06;0.90;;;0.90;;
68593;SDS011;55563;52.416;13.548;2023-05-19T08:27:08;1.10;;;1.10;;
68593;SDS011;55563;52.416;13.548;2023-05-19T08:29:11;0.85;;;0.85;;
68593;SDS011;55563;52.416;13.548;2023-05-19T08:31:14;0.88;;;0.88;;
68593;SDS011;55563;52.416;13.548;2023-05-19T08:35:17;0.90;;;0.90;;
68593;SDS011;55563;52.416;13.548;2023-05-19T08:37:20;1.02;;;1.02;;
68593;SDS011;55563;52.416;13.548;2023-05-19T08:39:23;1.02;;;1.02;;
68593;SDS011;55563;52.416;13.548;2023-05-19T08:41:26;0.85;;;0.85;;
68593;SDS011;55563;52.416;13.548;2023-05-19T08:43:27;0.85;;;0.85;;
68593;SDS011;55563;52.416;13.548;2023-05-19T08:45:28;0.98;;;0.98;;
68593;SDS011;55563;52.416;13.548;2023-05-19T08:47:30;1.02;;;1.02;;
68593;SDS011;55563;52.416;13.548;2023-05-19T08:49:34;0.75;;;0.75;;
68593;SDS011;55563;52.416;13.548;2023-05-19T08:51:59;0.82;;;0.82;;
68593;SDS011;55563;52.416;13.548;2023-05-19T08:54:14;0.88;;;0.88;;
68593;SDS011;55563;52.416;13.548;2023-05-19T08:56:19;1.02;;;1.02;;
68593;SDS011;55563;52.416;13.548;2023-05-19T08:58:23;1.00;;;1.00;;
68593;SDS011;55563;52.416;13.548;2023-05-19T09:00:26;0.95;;;0.95;;
68593;SDS011;55563;52.416;13.548;2023-05-19T09:02:29;1.02;;;1.02;;
68593;SDS011;55563;52.416;13.548;2023-05-19T09:04:31;0.90;;;0.90;;
68593;SDS011;55563;52.416;13.548;2023-05-19T09:06:33;0.90;;;0.90;;
68593;SDS011;55563;52.416;13.548;2023-05-19T09:08:35;0.82;;;0.82;;
68593;SDS011;55563;52.416;13.548;2023-05-19T09:10:36;0.85;;;0.85;;
68593;SDS011;55563;52.416;13.548;2023-05-19T09:12:38;1.77;;;1.63;;
68593;SDS011;55563;52.416;13.548;2023-05-19T09:14:40;1.10;;;1.10;;
68593;SDS011;55563;52.416;13.548;2023-05-19T09:16:41;1.15;;;1.05;;
68593;SDS011;55563;52.416;13.548;2023-05-19T09:18:52;0.85;;;0.85;;
68593;SDS011;55563;52.416;13.548;2023-05-19T09:20:59;0.90;;;0.90;;
68593;SDS011;55563;52.416;13.548;2023-05-19T09:23:02;1.20;;;1.20;;
68593;SDS011;55563;52.416;13.548;2023-05-19T09:25:05;0.95;;;0.95;;
68593;SDS011;55563;52.416;13.548;2023-05-19T09:27:20;0.98;;;0.98;;
68593;SDS011;55563;52.416;13.548;2023-05-19T09:29:22;1.05;;;1.05;;
68593;SDS011;55563;52.416;13.548;2023-05-19T09:33:25;0.88;;;0.88;;
68593;SDS011;55563;52.416;13.548;2023-05-19T09:35:27;1.13;;;1.13;;
68593;SDS011;55563;52.416;13.548;2023-05-19T09:37:28;1.30;;;1.23;;
68593;SDS011;55563;52.416;13.548;2023-05-19T09:39:31;0.98;;;0.98;;
68593;SDS011;55563;52.416;13.548;2023-05-19T09:41:33;2.88;;;1.35;;
68593;SDS011;55563;52.416;13.548;2023-05-19T09:43:36;0.82;;;0.82;;
68593;SDS011;55563;52.416;13.548;2023-05-19T09:45:39;1.10;;;1.10;;
68593;SDS011;55563;52.416;13.548;2023-05-19T09:47:41;0.90;;;0.90;;
68593;SDS011;55563;52.416;13.548;2023-05-19T09:49:46;0.90;;;0.90;;
68593;SDS011;55563;52.416;13.548;2023-05-19T09:51:48;1.05;;;1.05;;
68593;SDS011;55563;52.416;13.548;2023-05-19T09:53:51;0.90;;;0.90;;
68593;SDS011;55563;52.416;13.548;2023-05-19T09:55:56;1.00;;;1.00;;
68593;SDS011;55563;52.416;13.548;2023-05-19T09:57:57;0.90;;;0.90;;
68593;SDS011;55563;52.416;13.548;2023-05-19T10:00:02;0.95;;;0.95;;
68593;SDS011;55563;52.416;13.548;2023-05-19T10:02:26;0.35;;;0.35;;
68593;SDS011;55563;52.416;13.548;2023-05-19T10:04:28;0.40;;;0.40;;
68593;SDS011;55563;52.416;13.548;2023-05-19T10:06:40;0.30;;;0.30;;
68593;SDS011;55563;52.416;13.548;2023-05-19T10:10:46;0.30;;;0.30;;
68593;SDS011;55563;52.416;13.548;2023-05-19T10:12:47;0.20;;;0.20;;
68593;SDS011;55563;52.416;13.548;2023-05-19T10:14:49;0.60;;;0.60;;
68593;SDS011;55563;52.416;13.548;2023-05-19T10:16:54;0.22;;;0.22;;
68593;SDS011;55563;52.416;13.548;2023-05-19T10:18:55;0.20;;;0.20;;
68593;SDS011;55563;52.416;13.548;2023-05-19T10:20:59;0.28;;;0.28;;
68593;SDS011;55563;52.416;13.548;2023-05-19T10:23:02;0.30;;;0.30;;
68593;SDS011;55563;52.416;13.548;2023-05-19T10:25:03;0.73;;;0.55;;
68593;SDS011;55563;52.416;13.548;2023-05-19T10:27:09;0.38;;;0.38;;
68593;SDS011;55563;52.416;13.548;2023-05-19T10:29:14;0.43;;;0.43;;
68593;SDS011;55563;52.416;13.548;2023-05-19T10:31:19;0.65;;;0.40;;
68593;SDS011;55563;52.416;13.548;2023-05-19T10:33:30;0.20;;;0.20;;
68593;SDS011;55563;52.416;13.548;2023-05-19T10:38:40;0.20;;;0.20;;
68593;SDS011;55563;52.416;13.548;2023-05-19T10:41:29;0.40;;;0.40;;
68593;SDS011;55563;52.416;13.548;2023-05-19T10:43:21;0.40;;;0.40;;
68593;SDS011;55563;52.416;13.548;2023-05-19T10:45:53;0.40;;;0.40;;
68593;SDS011;55563;52.416;13.548;2023-05-19T10:48:00;0.47;;;0.47;;
68593;SDS011;55563;52.416;13.548;2023-05-19T10:50:01;0.30;;;0.30;;
68593;SDS011;55563;52.416;13.548;2023-05-19T10:52:17;0.30;;;0.30;;
68593;SDS011;55563;52.416;13.548;2023-05-19T10:54:52;0.40;;;0.40;;
68593;SDS011;55563;52.416;13.548;2023-05-19T10:56:45;0.20;;;0.20;;
68593;SDS011;55563;52.416;13.548;2023-05-19T10:58:50;0.30;;;0.30;;
68593;SDS011;55563;52.416;13.548;2023-05-19T11:00:58;0.30;;;0.30;;
68593;SDS011;55563;52.416;13.548;2023-05-19T11:03:17;0.30;;;0.30;;
68593;SDS011;55563;52.416;13.548;2023-05-19T11:05:31;0.50;;;0.50;;
68593;SDS011;55563;52.416;13.548;2023-05-19T11:07:36;0.40;;;0.40;;
68593;SDS011;55563;52.416;13.548;2023-05-19T11:09:40;0.30;;;0.30;;
68593;SDS011;55563;52.416;13.548;2023-05-19T11:13:58;0.60;;;0.60;;
68593;SDS011;55563;52.416;13.548;2023-05-19T11:16:06;0.80;;;0.80;;
68593;SDS011;55563;52.416;13.548;2023-05-19T11:18:08;0.75;;;0.75;;
68593;SDS011;55563;52.416;13.548;2023-05-19T11:20:27;0.70;;;0.70;;
68593;SDS011;55563;52.416;13.548;2023-05-19T11:22:28;0.90;;;0.90;;
68593;SDS011;55563;52.416;13.548;2023-05-19T11:26:40;0.98;;;0.98;;
68593;SDS011;55563;52.416;13.548;2023-05-19T11:28:42;0.70;;;0.70;;
68593;SDS011;55563;52.416;13.548;2023-05-19T11:30:47;1.27;;;1.17;;
68593;SDS011;55563;52.416;13.548;2023-05-19T11:32:51;0.80;;;0.80;;
68593;SDS011;55563;52.416;13.548;2023-05-19T11:34:55;0.93;;;0.93;;
68593;SDS011;55563;52.416;13.548;2023-05-19T11:36:57;1.30;;;1.17;;
68593;SDS011;55563;52.416;13.548;2023-05-19T11:39:00;1.05;;;1.05;;
68593;SDS011;55563;52.416;13.548;2023-05-19T11:41:03;1.15;;;1.15;;
68593;SDS011;55563;52.416;13.548;2023-05-19T11:43:05;0.90;;;0.90;;
68593;SDS011;55563;52.416;13.548;2023-05-19T11:45:07;1.10;;;1.10;;
68593;SDS011;55563;52.416;13.548;2023-05-19T11:47:09;1.17;;;1.15;;
68593;SDS011;55563;52.416;13.548;2023-05-19T11:49:11;0.90;;;0.90;;
68593;SDS011;55563;52.416;13.548;2023-05-19T11:51:12;0.88;;;0.88;;
68593;SDS011;55563;52.416;13.548;2023-05-19T11:55:17;4.10;;;1.55;;
68593;SDS011;55563;52.416;13.548;2023-05-19T11:57:21;0.80;;;0.80;;
68593;SDS011;55563;52.416;13.548;2023-05-19T11:59:31;0.82;;;0.82;;
68593;SDS011;55563;52.416;13.548;2023-05-19T12:01:33;1.35;;;1.35;;
68593;SDS011;55563;52.416;13.548;2023-05-19T12:03:34;0.90;;;0.90;;
68593;SDS011;55563;52.416;13.548;2023-05-19T12:05:37;1.00;;;1.00;;
68593;SDS011;55563;52.416;13.548;2023-05-19T12:07:43;1.15;;;1.15;;
68593;SDS011;55563;52.416;13.548;2023-05-19T12:09:47;0.70;;;0.70;;
68593;SDS011;55563;52.416;13.548;2023-05-19T12:11:51;0.90;;;0.90;;
68593;SDS011;55563;52.416;13.548;2023-05-19T12:13:57;1.10;;;1.10;;
68593;SDS011;55563;52.416;13.548;2023-05-19T12:15:58;0.93;;;0.93;;
68593;SDS011;55563;52.416;13.548;2023-05-19T12:18:01;0.93;;;0.93;;
68593;SDS011;55563;52.416;13.548;2023-05-19T12:20:07;1.10;;;1.10;;
68593;SDS011;55563;52.416;13.548;2023-05-19T12:22:09;0.98;;;0.98;;
68593;SDS011;55563;52.416;13.548;2023-05-19T12:24:11;0.93;;;0.90;;
68593;SDS011;55563;52.416;13.548;2023-05-19T12:26:12;1.30;;;1.20;;
68593;SDS011;55563;52.416;13.548;2023-05-19T12:28:14;1.13;;;1.13;;
68593;SDS011;55563;52.416;13.548;2023-05-19T12:30:16;1.40;;;1.30;;
68593;SDS011;55563;52.416;13.548;2023-05-19T12:32:17;1.15;;;1.15;;
68593;SDS011;55563;52.416;13.548;2023-05-19T12:34:19;1.05;;;1.05;;
68593;SDS011;55563;52.416;13.548;2023-05-19T12:36:23;1.33;;;1.05;;
68593;SDS011;55563;52.416;13.548;2023-05-19T12:38:24;1.55;;;1.45;;
68593;SDS011;55563;52.416;13.548;2023-05-19T12:40:25;1.00;;;1.00;;
68593;SDS011;55563;52.416;13.548;2023-05-19T12:42:30;1.15;;;1.15;;
68593;SDS011;55563;52.416;13.548;2023-05-19T12:44:41;1.00;;;1.00;;
68593;SDS011;55563;52.416;13.548;2023-05-19T12:46:50;1.15;;;1.15;;
68593;SDS011;55563;52.416;13.548;2023-05-19T12:48:57;1.15;;;1.15;;